sensor_id;sensor_type;location;lat;lon;timestamp;P1;durP1;ratioP1;P2;durP2;ratioP2
52512;SDS011;38422;53.172;6.974;2023-06-24T00:01:48;4.53;;;3.67;;
52512;SDS011;38422;53.172;6.974;2023-06-24T00:04:14;5.35;;;4.05;;
52512;SDS011;38422;53.172;6.974;2023-06-24T00:06:42;4.18;;;3.72;;
52512;SDS011;38422;53.172;6.974;2023-06-24T00:09:08;5.95;;;3.80;;
52512;SDS011;38422;53.172;6.974;2023-06-24T00:11:34;4.13;;;3.60;;
52512;SDS011;38422;53.172;6.974;2023-06-24T00:13:59;5.63;;;4.10;;
52512;SDS011;38422;53.172;6.974;2023-06-24T00:16:25;4.78;;;4.25;;
52512;SDS011;38422;53.172;6.974;2023-06-24T00:18:54;4.93;;;3.90;;
52512;SDS011;38422;53.172;6.974;2023-06-24T00:21:25;5.43;;;4.00;;
52512;SDS011;38422;53.172;6.974;2023-06-24T00:23:55;5.32;;;4.30;;
52512;SDS011;38422;53.172;6.974;2023-06-24T00:26:22;5.53;;;4.22;;
52512;SDS011;38422;53.172;6.974;2023-06-24T00:28:48;5.40;;;4.43;;
52512;SDS011;38422;53.172;6.974;2023-06-24T00:31:14;4.97;;;3.95;;
52512;SDS011;38422;53.172;6.974;2023-06-24T00:33:39;6.97;;;3.97;;
52512;SDS011;38422;53.172;6.974;2023-06-24T00:36:05;6.18;;;3.92;;
52512;SDS011;38422;53.172;6.974;2023-06-24T00:38:33;5.38;;;4.38;;
52512;SDS011;38422;53.172;6.974;2023-06-24T00:40:59;4.65;;;3.92;;
52512;SDS011;38422;53.172;6.974;2023-06-24T00:43:24;6.00;;;4.05;;
52512;SDS011;38422;53.172;6.974;2023-06-24T00:45:50;4.57;;;3.83;;
52512;SDS011;38422;53.172;6.974;2023-06-24T00:48:18;4.93;;;4.30;;
52512;SDS011;38422;53.172;6.974;2023-06-24T00:53:11;5.18;;;4.45;;
52512;SDS011;38422;53.172;6.974;2023-06-24T00:55:37;5.65;;;4.80;;
52512;SDS011;38422;53.172;6.974;2023-06-24T00:58:03;7.30;;;5.20;;
52512;SDS011;38422;53.172;6.974;2023-06-24T01:00:29;5.20;;;4.70;;
52512;SDS011;38422;53.172;6.974;2023-06-24T01:02:59;5.55;;;4.97;;
52512;SDS011;38422;53.172;6.974;2023-06-24T01:05:25;5.80;;;4.77;;
52512;SDS011;38422;53.172;6.974;2023-06-24T01:07:53;6.60;;;5.28;;
52512;SDS011;38422;53.172;6.974;2023-06-24T01:10:21;7.32;;;5.32;;
52512;SDS011;38422;53.172;6.974;2023-06-24T01:12:48;6.90;;;5.45;;
52512;SDS011;38422;53.172;6.974;2023-06-24T01:15:14;6.97;;;5.50;;
52512;SDS011;38422;53.172;6.974;2023-06-24T01:20:34;6.97;;;5.22;;
52512;SDS011;38422;53.172;6.974;2023-06-24T01:26:21;5.85;;;5.25;;
52512;SDS011;38422;53.172;6.974;2023-06-24T01:31:51;6.07;;;5.18;;
52512;SDS011;38422;53.172;6.974;2023-06-24T01:34:36;6.35;;;5.63;;
52512;SDS011;38422;53.172;6.974;2023-06-24T01:40:00;6.47;;;5.40;;
52512;SDS011;38422;53.172;6.974;2023-06-24T01:42:38;8.02;;;5.60;;
52512;SDS011;38422;53.172;6.974;2023-06-24T01:45:07;6.53;;;5.68;;
52512;SDS011;38422;53.172;6.974;2023-06-24T01:47:37;6.50;;;5.90;;
52512;SDS011;38422;53.172;6.974;2023-06-24T01:50:06;7.35;;;6.60;;
52512;SDS011;38422;53.172;6.974;2023-06-24T01:52:36;7.85;;;6.28;;
52512;SDS011;38422;53.172;6.974;2023-06-24T01:55:06;6.47;;;5.68;;
52512;SDS011;38422;53.172;6.974;2023-06-24T01:57:34;6.90;;;6.20;;
52512;SDS011;38422;53.172;6.974;2023-06-24T02:00:02;7.40;;;5.63;;
52512;SDS011;38422;53.172;6.974;2023-06-24T02:02:32;7.32;;;5.90;;
52512;SDS011;38422;53.172;6.974;2023-06-24T02:04:58;7.25;;;5.78;;
52512;SDS011;38422;53.172;6.974;2023-06-24T02:07:26;7.15;;;5.85;;
52512;SDS011;38422;53.172;6.974;2023-06-24T02:09:55;7.35;;;5.90;;
52512;SDS011;38422;53.172;6.974;2023-06-24T02:12:22;6.30;;;5.38;;
52512;SDS011;38422;53.172;6.974;2023-06-24T02:14:51;6.35;;;5.75;;
52512;SDS011;38422;53.172;6.974;2023-06-24T02:17:19;6.38;;;5.78;;
52512;SDS011;38422;53.172;6.974;2023-06-24T02:19:46;6.68;;;5.80;;
52512;SDS011;38422;53.172;6.974;2023-06-24T02:22:13;6.25;;;5.65;;
52512;SDS011;38422;53.172;6.974;2023-06-24T02:24:39;7.75;;;6.32;;
52512;SDS011;38422;53.172;6.974;2023-06-24T02:29:33;7.43;;;6.50;;
52512;SDS011;38422;53.172;6.974;2023-06-24T02:32:02;8.30;;;6.70;;
52512;SDS011;38422;53.172;6.974;2023-06-24T02:34:28;7.50;;;6.70;;
52512;SDS011;38422;53.172;6.974;2023-06-24T02:36:54;7.32;;;6.63;;
52512;SDS011;38422;53.172;6.974;2023-06-24T02:39:19;7.60;;;6.90;;
52512;SDS011;38422;53.172;6.974;2023-06-24T02:41:45;8.35;;;7.22;;
52512;SDS011;38422;53.172;6.974;2023-06-24T02:44:12;8.40;;;6.97;;
52512;SDS011;38422;53.172;6.974;2023-06-24T02:46:38;7.57;;;6.88;;
52512;SDS011;38422;53.172;6.974;2023-06-24T02:51:33;8.25;;;7.38;;
52512;SDS011;38422;53.172;6.974;2023-06-24T02:53:59;7.80;;;7.00;;
52512;SDS011;38422;53.172;6.974;2023-06-24T02:56:26;8.10;;;6.70;;
52512;SDS011;38422;53.172;6.974;2023-06-24T03:01:18;7.53;;;6.43;;
52512;SDS011;38422;53.172;6.974;2023-06-24T03:03:50;8.00;;;7.20;;
52512;SDS011;38422;53.172;6.974;2023-06-24T03:06:18;8.18;;;7.00;;
52512;SDS011;38422;53.172;6.974;2023-06-24T03:08:44;7.82;;;7.03;;
52512;SDS011;38422;53.172;6.974;2023-06-24T03:11:14;9.10;;;7.72;;
52512;SDS011;38422;53.172;6.974;2023-06-24T03:13:40;8.15;;;7.35;;
52512;SDS011;38422;53.172;6.974;2023-06-24T03:16:07;9.32;;;7.97;;
52512;SDS011;38422;53.172;6.974;2023-06-24T03:18:39;8.10;;;7.30;;
52512;SDS011;38422;53.172;6.974;2023-06-24T03:21:08;8.07;;;7.18;;
52512;SDS011;38422;53.172;6.974;2023-06-24T03:23:36;8.32;;;7.38;;
52512;SDS011;38422;53.172;6.974;2023-06-24T03:26:02;8.95;;;8.05;;
52512;SDS011;38422;53.172;6.974;2023-06-24T03:28:31;8.73;;;7.67;;
52512;SDS011;38422;53.172;6.974;2023-06-24T03:30:57;10.35;;;8.40;;
52512;SDS011;38422;53.172;6.974;2023-06-24T03:33:24;8.93;;;7.50;;
52512;SDS011;38422;53.172;6.974;2023-06-24T03:35:51;8.10;;;7.30;;
52512;SDS011;38422;53.172;6.974;2023-06-24T03:38:17;9.65;;;7.43;;
52512;SDS011;38422;53.172;6.974;2023-06-24T03:40:43;8.23;;;7.03;;
52512;SDS011;38422;53.172;6.974;2023-06-24T03:43:09;7.65;;;6.72;;
52512;SDS011;38422;53.172;6.974;2023-06-24T03:45:35;7.43;;;6.68;;
52512;SDS011;38422;53.172;6.974;2023-06-24T03:48:00;8.45;;;6.90;;
52512;SDS011;38422;53.172;6.974;2023-06-24T03:50:26;8.52;;;7.20;;
52512;SDS011;38422;53.172;6.974;2023-06-24T03:52:52;8.25;;;6.40;;
52512;SDS011;38422;53.172;6.974;2023-06-24T03:55:17;7.90;;;6.95;;
52512;SDS011;38422;53.172;6.974;2023-06-24T03:57:43;8.75;;;7.40;;
52512;SDS011;38422;53.172;6.974;2023-06-24T04:00:09;8.23;;;6.85;;
52512;SDS011;38422;53.172;6.974;2023-06-24T04:02:41;8.50;;;6.63;;
52512;SDS011;38422;53.172;6.974;2023-06-24T04:05:07;7.50;;;6.70;;
52512;SDS011;38422;53.172;6.974;2023-06-24T04:07:34;7.30;;;6.60;;
52512;SDS011;38422;53.172;6.974;2023-06-24T04:10:00;6.80;;;6.03;;
52512;SDS011;38422;53.172;6.974;2023-06-24T04:12:28;6.93;;;6.22;;
52512;SDS011;38422;53.172;6.974;2023-06-24T04:14:54;7.07;;;6.38;;
52512;SDS011;38422;53.172;6.974;2023-06-24T04:17:20;7.57;;;6.40;;
52512;SDS011;38422;53.172;6.974;2023-06-24T04:19:46;7.25;;;6.38;;
52512;SDS011;38422;53.172;6.974;2023-06-24T04:22:12;7.07;;;6.38;;
52512;SDS011;38422;53.172;6.974;2023-06-24T04:24:37;7.28;;;6.47;;
52512;SDS011;38422;53.172;6.974;2023-06-24T04:27:03;7.55;;;6.15;;
52512;SDS011;38422;53.172;6.974;2023-06-24T04:31:56;8.77;;;6.70;;
52512;SDS011;38422;53.172;6.974;2023-06-24T04:34:22;6.72;;;6.00;;
52512;SDS011;38422;53.172;6.974;2023-06-24T04:36:47;7.20;;;6.50;;
52512;SDS011;38422;53.172;6.974;2023-06-24T04:39:13;6.95;;;6.15;;
52512;SDS011;38422;53.172;6.974;2023-06-24T04:41:38;9.35;;;6.30;;
52512;SDS011;38422;53.172;6.974;2023-06-24T04:44:04;7.63;;;6.45;;
52512;SDS011;38422;53.172;6.974;2023-06-24T04:46:30;8.43;;;6.20;;
52512;SDS011;38422;53.172;6.974;2023-06-24T04:48:57;10.05;;;6.40;;
52512;SDS011;38422;53.172;6.974;2023-06-24T04:51:23;7.10;;;6.38;;
52512;SDS011;38422;53.172;6.974;2023-06-24T04:53:49;7.85;;;6.20;;
52512;SDS011;38422;53.172;6.974;2023-06-24T04:56:14;8.40;;;5.88;;
52512;SDS011;38422;53.172;6.974;2023-06-24T04:58:40;7.43;;;6.22;;
52512;SDS011;38422;53.172;6.974;2023-06-24T05:01:06;7.25;;;6.03;;
52512;SDS011;38422;53.172;6.974;2023-06-24T05:03:31;8.43;;;6.07;;
52512;SDS011;38422;53.172;6.974;2023-06-24T05:05:57;7.55;;;5.97;;
52512;SDS011;38422;53.172;6.974;2023-06-24T05:08:23;8.10;;;5.82;;
52512;SDS011;38422;53.172;6.974;2023-06-24T05:10:48;7.15;;;6.28;;
52512;SDS011;38422;53.172;6.974;2023-06-24T05:13:14;7.43;;;6.10;;
52512;SDS011;38422;53.172;6.974;2023-06-24T05:15:40;6.68;;;5.88;;
52512;SDS011;38422;53.172;6.974;2023-06-24T05:18:05;7.53;;;6.05;;
52512;SDS011;38422;53.172;6.974;2023-06-24T05:20:31;7.63;;;6.10;;
52512;SDS011;38422;53.172;6.974;2023-06-24T05:22:57;7.40;;;6.10;;
52512;SDS011;38422;53.172;6.974;2023-06-24T05:25:22;6.80;;;5.90;;
52512;SDS011;38422;53.172;6.974;2023-06-24T05:27:48;7.15;;;6.00;;
52512;SDS011;38422;53.172;6.974;2023-06-24T05:30:14;6.85;;;5.65;;
52512;SDS011;38422;53.172;6.974;2023-06-24T05:32:40;8.43;;;5.65;;
52512;SDS011;38422;53.172;6.974;2023-06-24T05:35:06;6.78;;;5.95;;
52512;SDS011;38422;53.172;6.974;2023-06-24T05:37:32;6.33;;;5.33;;
52512;SDS011;38422;53.172;6.974;2023-06-24T05:39:58;6.40;;;5.60;;
52512;SDS011;38422;53.172;6.974;2023-06-24T05:42:26;6.75;;;5.80;;
52512;SDS011;38422;53.172;6.974;2023-06-24T05:44:52;7.95;;;5.60;;
52512;SDS011;38422;53.172;6.974;2023-06-24T05:47:18;7.43;;;5.68;;
52512;SDS011;38422;53.172;6.974;2023-06-24T05:49:44;6.43;;;5.67;;
52512;SDS011;38422;53.172;6.974;2023-06-24T05:52:11;7.25;;;5.80;;
52512;SDS011;38422;53.172;6.974;2023-06-24T05:54:37;6.30;;;5.68;;
52512;SDS011;38422;53.172;6.974;2023-06-24T05:57:02;7.35;;;5.55;;
52512;SDS011;38422;53.172;6.974;2023-06-24T05:59:31;6.30;;;5.70;;
52512;SDS011;38422;53.172;6.974;2023-06-24T06:01:57;6.80;;;5.15;;
52512;SDS011;38422;53.172;6.974;2023-06-24T06:04:23;6.25;;;5.10;;
52512;SDS011;38422;53.172;6.974;2023-06-24T06:06:49;6.70;;;5.93;;
52512;SDS011;38422;53.172;6.974;2023-06-24T06:09:15;6.60;;;5.05;;
52512;SDS011;38422;53.172;6.974;2023-06-24T06:11:40;7.05;;;5.30;;
52512;SDS011;38422;53.172;6.974;2023-06-24T06:14:06;8.67;;;5.63;;
52512;SDS011;38422;53.172;6.974;2023-06-24T06:16:32;7.60;;;6.00;;
52512;SDS011;38422;53.172;6.974;2023-06-24T06:18:58;8.60;;;6.78;;
52512;SDS011;38422;53.172;6.974;2023-06-24T06:21:24;7.40;;;6.35;;
52512;SDS011;38422;53.172;6.974;2023-06-24T06:23:49;7.85;;;6.72;;
52512;SDS011;38422;53.172;6.974;2023-06-24T06:26:15;7.68;;;6.88;;
52512;SDS011;38422;53.172;6.974;2023-06-24T06:28:41;9.85;;;7.10;;
52512;SDS011;38422;53.172;6.974;2023-06-24T06:31:07;7.47;;;6.68;;
52512;SDS011;38422;53.172;6.974;2023-06-24T06:33:32;8.73;;;7.03;;
52512;SDS011;38422;53.172;6.974;2023-06-24T06:35:58;8.98;;;6.38;;
52512;SDS011;38422;53.172;6.974;2023-06-24T06:38:24;7.13;;;5.72;;
52512;SDS011;38422;53.172;6.974;2023-06-24T06:40:49;6.75;;;4.70;;
52512;SDS011;38422;53.172;6.974;2023-06-24T06:43:15;6.03;;;4.70;;
52512;SDS011;38422;53.172;6.974;2023-06-24T06:45:41;5.72;;;4.50;;
52512;SDS011;38422;53.172;6.974;2023-06-24T06:48:07;5.03;;;4.40;;
52512;SDS011;38422;53.172;6.974;2023-06-24T06:50:34;6.00;;;4.43;;
52512;SDS011;38422;53.172;6.974;2023-06-24T06:53:00;6.72;;;5.05;;
52512;SDS011;38422;53.172;6.974;2023-06-24T06:55:26;7.60;;;4.85;;
52512;SDS011;38422;53.172;6.974;2023-06-24T06:57:52;6.65;;;4.25;;
52512;SDS011;38422;53.172;6.974;2023-06-24T07:00:18;4.93;;;4.40;;
52512;SDS011;38422;53.172;6.974;2023-06-24T07:02:44;4.57;;;4.07;;
52512;SDS011;38422;53.172;6.974;2023-06-24T07:05:10;5.32;;;4.07;;
52512;SDS011;38422;53.172;6.974;2023-06-24T07:07:37;5.97;;;4.60;;
52512;SDS011;38422;53.172;6.974;2023-06-24T07:10:03;5.88;;;4.20;;
52512;SDS011;38422;53.172;6.974;2023-06-24T07:12:30;5.40;;;4.03;;
52512;SDS011;38422;53.172;6.974;2023-06-24T07:14:56;5.50;;;4.27;;
52512;SDS011;38422;53.172;6.974;2023-06-24T07:17:21;5.20;;;4.07;;
52512;SDS011;38422;53.172;6.974;2023-06-24T07:19:47;5.22;;;4.13;;
52512;SDS011;38422;53.172;6.974;2023-06-24T07:22:13;6.18;;;4.30;;
52512;SDS011;38422;53.172;6.974;2023-06-24T07:24:39;5.38;;;4.07;;
52512;SDS011;38422;53.172;6.974;2023-06-24T07:27:06;7.35;;;4.30;;
52512;SDS011;38422;53.172;6.974;2023-06-24T07:29:32;5.10;;;4.00;;
52512;SDS011;38422;53.172;6.974;2023-06-24T07:31:57;5.65;;;3.80;;
52512;SDS011;38422;53.172;6.974;2023-06-24T07:34:23;5.72;;;4.40;;
52512;SDS011;38422;53.172;6.974;2023-06-24T07:36:49;5.00;;;4.30;;
52512;SDS011;38422;53.172;6.974;2023-06-24T07:39:16;4.57;;;4.07;;
52512;SDS011;38422;53.172;6.974;2023-06-24T07:41:42;5.35;;;4.60;;
52512;SDS011;38422;53.172;6.974;2023-06-24T07:44:08;6.40;;;4.55;;
52512;SDS011;38422;53.172;6.974;2023-06-24T07:46:34;5.20;;;4.32;;
52512;SDS011;38422;53.172;6.974;2023-06-24T07:49:00;7.40;;;5.10;;
52512;SDS011;38422;53.172;6.974;2023-06-24T07:51:26;6.20;;;4.63;;
52512;SDS011;38422;53.172;6.974;2023-06-24T07:53:52;5.20;;;4.57;;
52512;SDS011;38422;53.172;6.974;2023-06-24T07:56:18;6.25;;;4.40;;
52512;SDS011;38422;53.172;6.974;2023-06-24T07:58:43;6.72;;;4.95;;
52512;SDS011;38422;53.172;6.974;2023-06-24T08:01:09;5.72;;;4.32;;
52512;SDS011;38422;53.172;6.974;2023-06-24T08:03:35;5.90;;;4.80;;
52512;SDS011;38422;53.172;6.974;2023-06-24T08:06:03;5.03;;;4.05;;
52512;SDS011;38422;53.172;6.974;2023-06-24T08:08:29;7.65;;;5.25;;
52512;SDS011;38422;53.172;6.974;2023-06-24T08:10:55;6.40;;;4.43;;
52512;SDS011;38422;53.172;6.974;2023-06-24T08:13:21;7.25;;;4.68;;
52512;SDS011;38422;53.172;6.974;2023-06-24T08:15:46;7.93;;;4.72;;
52512;SDS011;38422;53.172;6.974;2023-06-24T08:18:12;6.28;;;4.85;;
52512;SDS011;38422;53.172;6.974;2023-06-24T08:20:38;4.93;;;4.05;;
52512;SDS011;38422;53.172;6.974;2023-06-24T08:23:03;6.28;;;4.18;;
52512;SDS011;38422;53.172;6.974;2023-06-24T08:25:29;4.80;;;4.23;;
52512;SDS011;38422;53.172;6.974;2023-06-24T08:27:55;5.57;;;4.38;;
52512;SDS011;38422;53.172;6.974;2023-06-24T08:30:21;4.70;;;3.60;;
52512;SDS011;38422;53.172;6.974;2023-06-24T08:32:47;4.05;;;3.35;;
52512;SDS011;38422;53.172;6.974;2023-06-24T08:35:13;5.55;;;3.28;;
52512;SDS011;38422;53.172;6.974;2023-06-24T08:37:39;5.80;;;3.08;;
52512;SDS011;38422;53.172;6.974;2023-06-24T08:40:05;5.03;;;3.60;;
52512;SDS011;38422;53.172;6.974;2023-06-24T08:42:31;4.60;;;3.80;;
52512;SDS011;38422;53.172;6.974;2023-06-24T08:44:57;6.13;;;4.40;;
52512;SDS011;38422;53.172;6.974;2023-06-24T08:47:23;4.40;;;3.10;;
52512;SDS011;38422;53.172;6.974;2023-06-24T08:49:52;4.47;;;3.50;;
52512;SDS011;38422;53.172;6.974;2023-06-24T08:52:21;5.03;;;3.20;;
52512;SDS011;38422;53.172;6.974;2023-06-24T08:54:51;5.18;;;3.20;;
52512;SDS011;38422;53.172;6.974;2023-06-24T08:57:20;4.10;;;3.17;;
52512;SDS011;38422;53.172;6.974;2023-06-24T08:59:46;5.97;;;3.47;;
52512;SDS011;38422;53.172;6.974;2023-06-24T09:02:11;4.80;;;3.20;;
52512;SDS011;38422;53.172;6.974;2023-06-24T09:04:39;6.00;;;3.38;;
52512;SDS011;38422;53.172;6.974;2023-06-24T09:07:05;4.47;;;3.42;;
52512;SDS011;38422;53.172;6.974;2023-06-24T09:09:31;3.57;;;2.90;;
52512;SDS011;38422;53.172;6.974;2023-06-24T09:12:00;5.43;;;3.07;;
52512;SDS011;38422;53.172;6.974;2023-06-24T09:14:27;7.13;;;3.40;;
52512;SDS011;38422;53.172;6.974;2023-06-24T09:16:55;3.88;;;3.20;;
52512;SDS011;38422;53.172;6.974;2023-06-24T09:19:24;4.03;;;3.50;;
52512;SDS011;38422;53.172;6.974;2023-06-24T09:21:53;4.43;;;3.03;;
52512;SDS011;38422;53.172;6.974;2023-06-24T09:24:19;10.00;;;3.67;;
52512;SDS011;38422;53.172;6.974;2023-06-24T09:26:44;5.90;;;3.20;;
52512;SDS011;38422;53.172;6.974;2023-06-24T09:29:13;3.50;;;2.90;;
52512;SDS011;38422;53.172;6.974;2023-06-24T09:31:47;4.32;;;3.10;;
52512;SDS011;38422;53.172;6.974;2023-06-24T09:34:13;4.50;;;2.80;;
52512;SDS011;38422;53.172;6.974;2023-06-24T09:36:50;4.30;;;3.10;;
52512;SDS011;38422;53.172;6.974;2023-06-24T09:39:17;4.43;;;2.90;;
52512;SDS011;38422;53.172;6.974;2023-06-24T09:41:45;4.47;;;2.90;;
52512;SDS011;38422;53.172;6.974;2023-06-24T09:44:15;4.88;;;3.15;;
52512;SDS011;38422;53.172;6.974;2023-06-24T09:46:41;5.32;;;3.08;;
52512;SDS011;38422;53.172;6.974;2023-06-24T09:49:08;4.40;;;2.70;;
52512;SDS011;38422;53.172;6.974;2023-06-24T09:51:38;3.17;;;2.73;;
52512;SDS011;38422;53.172;6.974;2023-06-24T09:54:08;4.75;;;2.80;;
52512;SDS011;38422;53.172;6.974;2023-06-24T09:56:36;5.15;;;2.70;;
52512;SDS011;38422;53.172;6.974;2023-06-24T09:59:03;3.28;;;2.40;;
52512;SDS011;38422;53.172;6.974;2023-06-24T10:01:30;4.28;;;2.83;;
52512;SDS011;38422;53.172;6.974;2023-06-24T10:04:01;4.28;;;2.63;;
52512;SDS011;38422;53.172;6.974;2023-06-24T10:06:27;3.33;;;2.30;;
52512;SDS011;38422;53.172;6.974;2023-06-24T10:11:19;2.92;;;2.22;;
52512;SDS011;38422;53.172;6.974;2023-06-24T10:13:46;3.15;;;2.10;;
52512;SDS011;38422;53.172;6.974;2023-06-24T10:16:11;3.50;;;2.50;;
52512;SDS011;38422;53.172;6.974;2023-06-24T10:18:38;4.13;;;2.37;;
52512;SDS011;38422;53.172;6.974;2023-06-24T10:21:08;4.10;;;2.20;;
52512;SDS011;38422;53.172;6.974;2023-06-24T10:23:40;2.70;;;2.08;;
52512;SDS011;38422;53.172;6.974;2023-06-24T10:26:21;2.92;;;2.15;;
52512;SDS011;38422;53.172;6.974;2023-06-24T10:34:19;4.28;;;2.17;;
52512;SDS011;38422;53.172;6.974;2023-06-24T10:36:59;2.60;;;1.98;;
52512;SDS011;38422;53.172;6.974;2023-06-24T10:44:45;3.03;;;1.88;;
52512;SDS011;38422;53.172;6.974;2023-06-24T10:47:11;3.67;;;1.88;;
52512;SDS011;38422;53.172;6.974;2023-06-24T10:49:37;3.20;;;2.03;;
52512;SDS011;38422;53.172;6.974;2023-06-24T10:52:02;2.17;;;1.73;;
52512;SDS011;38422;53.172;6.974;2023-06-24T10:54:29;2.67;;;1.85;;
52512;SDS011;38422;53.172;6.974;2023-06-24T10:56:55;5.63;;;1.95;;
52512;SDS011;38422;53.172;6.974;2023-06-24T10:59:21;5.10;;;1.80;;
52512;SDS011;38422;53.172;6.974;2023-06-24T11:01:53;2.20;;;1.60;;
52512;SDS011;38422;53.172;6.974;2023-06-24T11:04:19;2.92;;;1.88;;
52512;SDS011;38422;53.172;6.974;2023-06-24T11:07:00;2.17;;;1.70;;
52512;SDS011;38422;53.172;6.974;2023-06-24T11:09:26;2.97;;;1.90;;
52512;SDS011;38422;53.172;6.974;2023-06-24T11:11:52;4.10;;;2.20;;
52512;SDS011;38422;53.172;6.974;2023-06-24T11:14:21;2.60;;;1.90;;
52512;SDS011;38422;53.172;6.974;2023-06-24T11:16:47;2.92;;;1.92;;
52512;SDS011;38422;53.172;6.974;2023-06-24T11:19:12;3.93;;;2.00;;
52512;SDS011;38422;53.172;6.974;2023-06-24T11:21:38;3.83;;;1.75;;
52512;SDS011;38422;53.172;6.974;2023-06-24T11:24:04;4.20;;;1.93;;
52512;SDS011;38422;53.172;6.974;2023-06-24T11:26:30;4.95;;;1.67;;
52512;SDS011;38422;53.172;6.974;2023-06-24T11:31:26;2.53;;;1.60;;
52512;SDS011;38422;53.172;6.974;2023-06-24T11:33:51;2.38;;;1.70;;
52512;SDS011;38422;53.172;6.974;2023-06-24T11:36:17;3.03;;;1.90;;
52512;SDS011;38422;53.172;6.974;2023-06-24T11:38:47;3.33;;;1.90;;
52512;SDS011;38422;53.172;6.974;2023-06-24T11:41:13;2.53;;;1.80;;
52512;SDS011;38422;53.172;6.974;2023-06-24T11:43:45;2.47;;;1.88;;
52512;SDS011;38422;53.172;6.974;2023-06-24T11:46:24;2.75;;;2.00;;
52512;SDS011;38422;53.172;6.974;2023-06-24T11:49:05;2.42;;;1.70;;
52512;SDS011;38422;53.172;6.974;2023-06-24T11:51:31;1.95;;;1.67;;
52512;SDS011;38422;53.172;6.974;2023-06-24T11:54:02;2.58;;;1.90;;
52512;SDS011;38422;53.172;6.974;2023-06-24T11:56:35;7.25;;;1.80;;
52512;SDS011;38422;53.172;6.974;2023-06-24T11:59:21;2.22;;;1.45;;
52512;SDS011;38422;53.172;6.974;2023-06-24T12:01:54;2.33;;;1.70;;
52512;SDS011;38422;53.172;6.974;2023-06-24T12:04:21;3.13;;;2.00;;
52512;SDS011;38422;53.172;6.974;2023-06-24T12:06:52;2.22;;;1.40;;
52512;SDS011;38422;53.172;6.974;2023-06-24T12:09:17;1.80;;;1.57;;
52512;SDS011;38422;53.172;6.974;2023-06-24T12:11:43;1.95;;;1.50;;
52512;SDS011;38422;53.172;6.974;2023-06-24T12:14:09;2.45;;;1.70;;
52512;SDS011;38422;53.172;6.974;2023-06-24T12:16:34;3.60;;;1.70;;
52512;SDS011;38422;53.172;6.974;2023-06-24T12:19:00;3.65;;;1.50;;
52512;SDS011;38422;53.172;6.974;2023-06-24T12:21:27;2.22;;;1.58;;
52512;SDS011;38422;53.172;6.974;2023-06-24T12:23:53;4.17;;;1.83;;
52512;SDS011;38422;53.172;6.974;2023-06-24T12:26:18;1.73;;;1.38;;
52512;SDS011;38422;53.172;6.974;2023-06-24T12:28:44;2.33;;;1.50;;
52512;SDS011;38422;53.172;6.974;2023-06-24T12:31:10;3.10;;;1.70;;
52512;SDS011;38422;53.172;6.974;2023-06-24T12:36:02;3.08;;;1.65;;
52512;SDS011;38422;53.172;6.974;2023-06-24T12:38:28;2.88;;;1.40;;
52512;SDS011;38422;53.172;6.974;2023-06-24T12:40:53;2.17;;;1.60;;
52512;SDS011;38422;53.172;6.974;2023-06-24T12:43:19;2.17;;;1.35;;
52512;SDS011;38422;53.172;6.974;2023-06-24T12:45:45;1.80;;;1.60;;
52512;SDS011;38422;53.172;6.974;2023-06-24T12:48:12;2.17;;;1.40;;
52512;SDS011;38422;53.172;6.974;2023-06-24T12:50:38;2.88;;;1.70;;
52512;SDS011;38422;53.172;6.974;2023-06-24T12:53:04;1.98;;;1.65;;
52512;SDS011;38422;53.172;6.974;2023-06-24T12:55:30;2.92;;;1.63;;
52512;SDS011;38422;53.172;6.974;2023-06-24T12:57:56;2.90;;;1.60;;
52512;SDS011;38422;53.172;6.974;2023-06-24T13:00:23;2.50;;;1.60;;
52512;SDS011;38422;53.172;6.974;2023-06-24T13:02:49;2.58;;;1.95;;
52512;SDS011;38422;53.172;6.974;2023-06-24T13:05:16;2.17;;;1.40;;
52512;SDS011;38422;53.172;6.974;2023-06-24T13:07:42;4.25;;;1.70;;
52512;SDS011;38422;53.172;6.974;2023-06-24T13:10:08;3.20;;;1.80;;
52512;SDS011;38422;53.172;6.974;2023-06-24T13:12:34;3.78;;;1.70;;
52512;SDS011;38422;53.172;6.974;2023-06-24T13:15:01;1.65;;;1.55;;
52512;SDS011;38422;53.172;6.974;2023-06-24T13:17:29;3.15;;;1.70;;
52512;SDS011;38422;53.172;6.974;2023-06-24T13:19:55;4.95;;;1.90;;
52512;SDS011;38422;53.172;6.974;2023-06-24T13:22:21;3.47;;;1.80;;
52512;SDS011;38422;53.172;6.974;2023-06-24T13:24:47;2.40;;;1.70;;
52512;SDS011;38422;53.172;6.974;2023-06-24T13:27:13;3.75;;;2.10;;
52512;SDS011;38422;53.172;6.974;2023-06-24T13:29:39;2.93;;;1.90;;
52512;SDS011;38422;53.172;6.974;2023-06-24T13:32:05;3.20;;;1.77;;
52512;SDS011;38422;53.172;6.974;2023-06-24T13:34:31;3.30;;;1.70;;
52512;SDS011;38422;53.172;6.974;2023-06-24T13:36:56;2.85;;;1.88;;
52512;SDS011;38422;53.172;6.974;2023-06-24T13:39:22;2.03;;;1.73;;
52512;SDS011;38422;53.172;6.974;2023-06-24T13:41:49;4.10;;;2.10;;
52512;SDS011;38422;53.172;6.974;2023-06-24T13:44:15;4.60;;;3.47;;
52512;SDS011;38422;53.172;6.974;2023-06-24T13:46:41;6.65;;;4.32;;
52512;SDS011;38422;53.172;6.974;2023-06-24T13:49:07;6.40;;;4.80;;
52512;SDS011;38422;53.172;6.974;2023-06-24T13:51:33;5.93;;;4.80;;
52512;SDS011;38422;53.172;6.974;2023-06-24T13:53:59;5.97;;;5.05;;
52512;SDS011;38422;53.172;6.974;2023-06-24T13:56:25;6.43;;;5.00;;
52512;SDS011;38422;53.172;6.974;2023-06-24T13:58:51;7.88;;;5.05;;
52512;SDS011;38422;53.172;6.974;2023-06-24T14:01:18;8.27;;;5.10;;
52512;SDS011;38422;53.172;6.974;2023-06-24T14:03:45;6.60;;;5.22;;
52512;SDS011;38422;53.172;6.974;2023-06-24T14:06:13;7.03;;;5.43;;
52512;SDS011;38422;53.172;6.974;2023-06-24T14:08:43;5.47;;;4.45;;
52512;SDS011;38422;53.172;6.974;2023-06-24T14:11:09;6.70;;;5.03;;
52512;SDS011;38422;53.172;6.974;2023-06-24T14:13:34;6.50;;;4.50;;
52512;SDS011;38422;53.172;6.974;2023-06-24T14:16:01;7.65;;;4.70;;
52512;SDS011;38422;53.172;6.974;2023-06-24T14:18:28;7.20;;;4.38;;
52512;SDS011;38422;53.172;6.974;2023-06-24T14:20:57;5.97;;;4.07;;
52512;SDS011;38422;53.172;6.974;2023-06-24T14:23:23;5.97;;;4.00;;
52512;SDS011;38422;53.172;6.974;2023-06-24T14:25:51;6.45;;;4.30;;
52512;SDS011;38422;53.172;6.974;2023-06-24T14:30:42;6.57;;;3.88;;
52512;SDS011;38422;53.172;6.974;2023-06-24T14:33:08;5.72;;;3.55;;
52512;SDS011;38422;53.172;6.974;2023-06-24T14:35:34;6.68;;;3.83;;
52512;SDS011;38422;53.172;6.974;2023-06-24T14:38:00;4.88;;;3.47;;
52512;SDS011;38422;53.172;6.974;2023-06-24T14:40:26;6.90;;;3.60;;
52512;SDS011;38422;53.172;6.974;2023-06-24T14:42:52;6.37;;;4.17;;
52512;SDS011;38422;53.172;6.974;2023-06-24T14:45:17;6.70;;;3.78;;
52512;SDS011;38422;53.172;6.974;2023-06-24T14:47:43;5.70;;;3.50;;
52512;SDS011;38422;53.172;6.974;2023-06-24T14:50:09;5.00;;;3.63;;
52512;SDS011;38422;53.172;6.974;2023-06-24T14:52:35;6.05;;;3.90;;
52512;SDS011;38422;53.172;6.974;2023-06-24T14:55:01;4.88;;;3.65;;
52512;SDS011;38422;53.172;6.974;2023-06-24T14:57:26;5.65;;;3.47;;
52512;SDS011;38422;53.172;6.974;2023-06-24T14:59:52;6.13;;;3.10;;
52512;SDS011;38422;53.172;6.974;2023-06-24T15:02:18;5.55;;;2.90;;
52512;SDS011;38422;53.172;6.974;2023-06-24T15:04:44;6.43;;;3.22;;
52512;SDS011;38422;53.172;6.974;2023-06-24T15:07:09;4.67;;;2.80;;
52512;SDS011;38422;53.172;6.974;2023-06-24T15:09:35;4.90;;;2.60;;
52512;SDS011;38422;53.172;6.974;2023-06-24T15:12:02;5.20;;;2.60;;
52512;SDS011;38422;53.172;6.974;2023-06-24T15:14:28;4.32;;;2.30;;
52512;SDS011;38422;53.172;6.974;2023-06-24T15:16:53;3.83;;;2.47;;
52512;SDS011;38422;53.172;6.974;2023-06-24T15:19:22;3.25;;;2.53;;
52512;SDS011;38422;53.172;6.974;2023-06-24T15:21:48;2.97;;;2.30;;
52512;SDS011;38422;53.172;6.974;2023-06-24T15:24:14;3.47;;;1.88;;
52512;SDS011;38422;53.172;6.974;2023-06-24T15:26:39;4.40;;;1.98;;
52512;SDS011;38422;53.172;6.974;2023-06-24T15:29:05;2.95;;;2.25;;
52512;SDS011;38422;53.172;6.974;2023-06-24T15:31:31;4.70;;;2.30;;